createdAt,value
2018-07-07T12:38:57.244Z,32.00
2018-07-07T12:41:25.374Z,32.60
2018-07-07T12:43:53.743Z,33.50
2018-07-07T12:46:21.880Z,34.00
2018-07-07T12:48:50.035Z,34.10
2018-07-07T12:51:18.167Z,34.20
2018-07-07T12:53:46.265Z,34.30
2018-07-07T12:56:14.397Z,34.60
2018-07-07T12:58:42.529Z,34.70
2018-07-07T19:33:43.936Z,22.40
2018-07-07T19:36:17.592Z,25.50
2018-07-07T19:38:45.734Z,26.90
2018-07-07T19:41:13.959Z,27.70
2018-07-07T19:43:42.108Z,28.10
2018-07-07T19:46:10.295Z,28.30
2018-07-07T19:48:38.487Z,28.40
2018-07-07T19:51:07.496Z,28.40
2018-07-07T19:53:35.676Z,28.30
2018-07-07T19:56:03.812Z,28.30
2018-07-07T19:58:31.943Z,28.20
2018-07-07T20:01:00.102Z,28.10
2018-07-07T20:03:28.203Z,27.90
2018-07-07T20:05:56.368Z,27.80
2018-07-07T20:08:24.922Z,27.80
2018-07-07T20:10:53.036Z,27.80
2018-07-07T20:13:21.287Z,27.70
2018-07-07T20:16:12.769Z,27.60
2018-07-07T20:18:57.675Z,27.50
2018-07-07T20:21:42.609Z,27.50
2018-07-07T20:24:10.962Z,27.50
2018-07-07T20:26:43.305Z,27.30
2018-07-07T20:29:11.541Z,27.20
2018-07-07T20:31:44.917Z,27.20
2018-07-07T20:34:13.063Z,27.10
2018-07-07T20:36:41.423Z,27.00
2018-07-07T20:39:09.680Z,27.00
2018-07-07T20:41:37.776Z,27.00
2018-07-07T20:44:06.198Z,26.90
2018-07-07T20:46:34.581Z,26.70
2018-07-07T20:49:02.906Z,26.70
2018-07-07T20:51:31.048Z,26.70
2018-07-07T20:53:59.232Z,26.70
2018-07-07T20:56:27.489Z,26.70
2018-07-07T20:58:55.763Z,26.60
2018-07-07T21:01:23.968Z,26.60
2018-07-07T21:03:52.315Z,26.50
2018-07-07T21:06:20.427Z,26.40
2018-07-07T21:08:48.754Z,26.30
2018-07-07T21:11:16.967Z,26.20
2018-07-07T21:13:45.216Z,26.10
2018-07-07T21:16:13.391Z,26.10
2018-07-07T21:18:41.564Z,26.00
2018-07-07T21:21:09.830Z,26.00
2018-07-07T21:23:38.070Z,26.00
2018-07-07T21:26:06.144Z,26.00
2018-07-07T21:28:34.482Z,26.00
2018-07-07T21:31:02.652Z,25.90
2018-07-07T21:33:30.943Z,25.80
2018-07-07T21:35:59.227Z,25.70
2018-07-07T21:38:27.428Z,25.70
2018-07-07T21:40:55.627Z,25.70
2018-07-07T21:43:23.852Z,25.60
2018-07-07T21:45:52.026Z,25.50
2018-07-07T21:48:20.204Z,25.40
2018-07-07T21:50:48.809Z,25.40
2018-07-07T21:53:16.992Z,25.30
2018-07-07T21:55:45.335Z,25.20
2018-07-07T21:58:18.759Z,25.10
2018-07-07T22:01:03.952Z,25.20
2018-07-07T22:03:37.440Z,25.20
2018-07-07T22:06:07.025Z,25.00
2018-07-07T22:08:35.952Z,24.90
2018-07-07T22:11:04.502Z,24.80
2018-07-07T22:13:32.764Z,24.80
2018-07-07T22:16:00.935Z,24.70
2018-07-07T22:18:29.089Z,24.70
2018-07-07T22:21:08.797Z,24.70
2018-07-07T22:23:36.932Z,24.70
2018-07-07T22:26:05.024Z,24.50
2018-07-07T22:28:33.423Z,24.40
2018-07-07T22:31:01.556Z,24.40
2018-07-07T22:33:29.691Z,24.40
2018-07-07T22:36:03.144Z,24.40
2018-07-07T22:38:36.550Z,24.30
2018-07-07T22:41:04.717Z,24.20
2018-07-07T22:46:01.145Z,24.00
2018-07-07T22:48:29.668Z,24.20
2018-07-07T22:50:57.863Z,24.10
2018-07-07T22:53:26.210Z,24.20
2018-07-07T22:55:54.316Z,24.10
2018-07-07T22:58:22.467Z,24.00
2018-07-07T23:00:50.596Z,23.90
2018-07-07T23:03:18.743Z,23.90
2018-07-07T23:05:46.896Z,23.90
2018-07-07T23:08:15.105Z,23.90
2018-07-07T23:10:43.172Z,23.90
2018-07-07T23:13:11.335Z,23.70
2018-07-07T23:15:39.444Z,23.70
2018-07-07T23:18:07.595Z,23.50
2018-07-07T23:20:35.799Z,23.40
2018-07-07T23:23:03.931Z,23.40
2018-07-07T23:25:32.063Z,23.30
2018-07-07T23:28:00.196Z,23.20
2018-07-07T23:30:28.349Z,23.20
2018-07-07T23:32:57.238Z,23.20
2018-07-07T23:35:25.403Z,23.20
2018-07-07T23:37:53.524Z,23.10
2018-07-07T23:40:21.707Z,22.90
2018-07-07T23:42:49.806Z,22.80
2018-07-07T23:45:17.972Z,22.80
2018-07-07T23:50:14.046Z,22.70
2018-07-07T23:52:42.209Z,22.60
2018-07-07T23:55:10.376Z,22.60
2018-07-07T23:57:38.516Z,22.50
